sensor_id;sensor_type;location;lat;lon;timestamp;P1;durP1;ratioP1;P2;durP2;ratioP2
25057;SDS011;13057;50.978;11.034;2023-02-16T00:00:04;17.63;;;10.80;;
25057;SDS011;13057;50.978;11.034;2023-02-16T00:02:30;15.55;;;10.05;;
25057;SDS011;13057;50.978;11.034;2023-02-16T00:04:56;17.10;;;10.88;;
25057;SDS011;13057;50.978;11.034;2023-02-16T00:07:22;16.60;;;9.90;;
25057;SDS011;13057;50.978;11.034;2023-02-16T00:09:48;12.93;;;9.20;;
25057;SDS011;13057;50.978;11.034;2023-02-16T00:12:16;14.20;;;9.77;;
25057;SDS011;13057;50.978;11.034;2023-02-16T00:14:57;15.98;;;10.27;;
25057;SDS011;13057;50.978;11.034;2023-02-16T00:17:23;20.02;;;10.32;;
25057;SDS011;13057;50.978;11.034;2023-02-16T00:19:49;18.40;;;10.80;;
25057;SDS011;13057;50.978;11.034;2023-02-16T00:22:15;15.98;;;10.25;;
25057;SDS011;13057;50.978;11.034;2023-02-16T00:24:40;16.50;;;10.63;;
25057;SDS011;13057;50.978;11.034;2023-02-16T00:27:11;15.82;;;10.52;;
25057;SDS011;13057;50.978;11.034;2023-02-16T00:29:39;14.55;;;9.38;;
25057;SDS011;13057;50.978;11.034;2023-02-16T00:32:05;14.80;;;9.98;;
25057;SDS011;13057;50.978;11.034;2023-02-16T00:34:38;15.52;;;9.90;;
25057;SDS011;13057;50.978;11.034;2023-02-16T00:37:06;14.88;;;9.68;;
25057;SDS011;13057;50.978;11.034;2023-02-16T00:39:34;16.25;;;10.15;;
25057;SDS011;13057;50.978;11.034;2023-02-16T00:42:03;17.40;;;10.40;;
25057;SDS011;13057;50.978;11.034;2023-02-16T00:44:39;16.35;;;10.52;;
25057;SDS011;13057;50.978;11.034;2023-02-16T00:47:26;15.73;;;10.43;;
25057;SDS011;13057;50.978;11.034;2023-02-16T00:49:56;16.63;;;10.70;;
25057;SDS011;13057;50.978;11.034;2023-02-16T00:52:26;17.80;;;10.43;;
25057;SDS011;13057;50.978;11.034;2023-02-16T00:54:56;17.08;;;10.95;;
25057;SDS011;13057;50.978;11.034;2023-02-16T00:57:23;20.40;;;11.52;;
25057;SDS011;13057;50.978;11.034;2023-02-16T00:59:59;17.98;;;11.45;;
25057;SDS011;13057;50.978;11.034;2023-02-16T01:02:30;18.02;;;11.23;;
25057;SDS011;13057;50.978;11.034;2023-02-16T01:04:56;18.25;;;10.93;;
25057;SDS011;13057;50.978;11.034;2023-02-16T01:07:22;19.13;;;12.10;;
25057;SDS011;13057;50.978;11.034;2023-02-16T01:10:00;20.05;;;11.95;;
25057;SDS011;13057;50.978;11.034;2023-02-16T01:12:38;17.50;;;10.95;;
25057;SDS011;13057;50.978;11.034;2023-02-16T01:15:04;18.10;;;11.98;;
25057;SDS011;13057;50.978;11.034;2023-02-16T01:17:34;18.52;;;11.63;;
25057;SDS011;13057;50.978;11.034;2023-02-16T01:20:00;17.48;;;11.73;;
25057;SDS011;13057;50.978;11.034;2023-02-16T01:22:26;17.35;;;11.05;;
25057;SDS011;13057;50.978;11.034;2023-02-16T01:24:57;19.65;;;11.40;;
25057;SDS011;13057;50.978;11.034;2023-02-16T01:27:23;18.75;;;11.32;;
25057;SDS011;13057;50.978;11.034;2023-02-16T01:29:49;16.90;;;10.82;;
25057;SDS011;13057;50.978;11.034;2023-02-16T01:32:15;17.30;;;11.18;;
25057;SDS011;13057;50.978;11.034;2023-02-16T01:34:40;17.00;;;10.98;;
25057;SDS011;13057;50.978;11.034;2023-02-16T01:37:11;15.23;;;10.95;;
25057;SDS011;13057;50.978;11.034;2023-02-16T01:39:39;19.02;;;11.50;;
25057;SDS011;13057;50.978;11.034;2023-02-16T01:42:15;17.23;;;10.82;;
25057;SDS011;13057;50.978;11.034;2023-02-16T01:44:53;18.88;;;11.07;;
25057;SDS011;13057;50.978;11.034;2023-02-16T01:50:14;19.40;;;11.38;;
25057;SDS011;13057;50.978;11.034;2023-02-16T01:52:44;17.17;;;10.73;;
25057;SDS011;13057;50.978;11.034;2023-02-16T01:55:23;18.95;;;12.32;;
25057;SDS011;13057;50.978;11.034;2023-02-16T01:57:57;19.65;;;11.70;;
25057;SDS011;13057;50.978;11.034;2023-02-16T02:02:55;18.92;;;11.65;;
25057;SDS011;13057;50.978;11.034;2023-02-16T02:05:37;18.20;;;11.15;;
25057;SDS011;13057;50.978;11.034;2023-02-16T02:10:53;18.95;;;11.20;;
25057;SDS011;13057;50.978;11.034;2023-02-16T02:13:37;18.85;;;11.63;;
25057;SDS011;13057;50.978;11.034;2023-02-16T02:16:05;20.35;;;11.98;;
25057;SDS011;13057;50.978;11.034;2023-02-16T02:18:31;18.75;;;11.45;;
25057;SDS011;13057;50.978;11.034;2023-02-16T02:21:04;19.83;;;12.10;;
25057;SDS011;13057;50.978;11.034;2023-02-16T02:24:13;18.08;;;11.68;;
25057;SDS011;13057;50.978;11.034;2023-02-16T02:27:06;18.83;;;12.13;;
25057;SDS011;13057;50.978;11.034;2023-02-16T02:29:53;20.25;;;12.90;;
25057;SDS011;13057;50.978;11.034;2023-02-16T02:32:45;18.98;;;12.30;;
25057;SDS011;13057;50.978;11.034;2023-02-16T02:35:34;20.08;;;12.25;;
25057;SDS011;13057;50.978;11.034;2023-02-16T02:38:15;20.60;;;12.70;;
25057;SDS011;13057;50.978;11.034;2023-02-16T02:40:52;22.25;;;11.68;;
25057;SDS011;13057;50.978;11.034;2023-02-16T02:43:38;17.92;;;11.68;;
25057;SDS011;13057;50.978;11.034;2023-02-16T02:46:10;20.05;;;11.70;;
25057;SDS011;13057;50.978;11.034;2023-02-16T02:48:42;19.40;;;12.05;;
25057;SDS011;13057;50.978;11.034;2023-02-16T02:51:09;19.92;;;12.27;;
25057;SDS011;13057;50.978;11.034;2023-02-16T02:53:50;19.38;;;12.80;;
25057;SDS011;13057;50.978;11.034;2023-02-16T02:56:39;20.63;;;12.73;;
25057;SDS011;13057;50.978;11.034;2023-02-16T02:59:20;22.98;;;13.52;;
25057;SDS011;13057;50.978;11.034;2023-02-16T03:01:59;20.42;;;13.80;;
25057;SDS011;13057;50.978;11.034;2023-02-16T03:04:27;20.00;;;12.82;;
25057;SDS011;13057;50.978;11.034;2023-02-16T03:06:56;22.38;;;13.02;;
25057;SDS011;13057;50.978;11.034;2023-02-16T03:09:24;19.00;;;12.18;;
25057;SDS011;13057;50.978;11.034;2023-02-16T03:11:51;25.52;;;15.20;;
25057;SDS011;13057;50.978;11.034;2023-02-16T03:14:34;24.58;;;14.70;;
25057;SDS011;13057;50.978;11.034;2023-02-16T03:17:06;27.70;;;15.65;;
25057;SDS011;13057;50.978;11.034;2023-02-16T03:19:49;24.52;;;14.60;;
25057;SDS011;13057;50.978;11.034;2023-02-16T03:22:28;24.60;;;15.20;;
25057;SDS011;13057;50.978;11.034;2023-02-16T03:25:07;26.20;;;15.65;;
25057;SDS011;13057;50.978;11.034;2023-02-16T03:27:45;24.55;;;15.48;;
25057;SDS011;13057;50.978;11.034;2023-02-16T03:30:23;24.88;;;15.10;;
25057;SDS011;13057;50.978;11.034;2023-02-16T03:32:50;25.98;;;15.82;;
25057;SDS011;13057;50.978;11.034;2023-02-16T03:35:16;23.20;;;14.93;;
25057;SDS011;13057;50.978;11.034;2023-02-16T03:37:43;30.98;;;16.08;;
25057;SDS011;13057;50.978;11.034;2023-02-16T03:40:11;26.25;;;15.73;;
25057;SDS011;13057;50.978;11.034;2023-02-16T03:42:52;30.77;;;16.83;;
25057;SDS011;13057;50.978;11.034;2023-02-16T03:45:20;27.92;;;16.17;;
25057;SDS011;13057;50.978;11.034;2023-02-16T03:47:46;25.63;;;16.20;;
25057;SDS011;13057;50.978;11.034;2023-02-16T03:50:12;29.63;;;16.58;;
25057;SDS011;13057;50.978;11.034;2023-02-16T03:52:38;26.10;;;16.20;;
25057;SDS011;13057;50.978;11.034;2023-02-16T03:55:04;24.30;;;15.48;;
25057;SDS011;13057;50.978;11.034;2023-02-16T03:57:30;23.23;;;14.52;;
25057;SDS011;13057;50.978;11.034;2023-02-16T03:59:56;24.58;;;14.80;;
25057;SDS011;13057;50.978;11.034;2023-02-16T04:02:22;22.38;;;14.32;;
25057;SDS011;13057;50.978;11.034;2023-02-16T04:04:49;24.00;;;13.25;;
25057;SDS011;13057;50.978;11.034;2023-02-16T04:07:15;21.67;;;13.20;;
25057;SDS011;13057;50.978;11.034;2023-02-16T04:09:41;20.33;;;12.82;;
25057;SDS011;13057;50.978;11.034;2023-02-16T04:12:08;20.27;;;12.48;;
25057;SDS011;13057;50.978;11.034;2023-02-16T04:14:47;23.73;;;13.57;;
25057;SDS011;13057;50.978;11.034;2023-02-16T04:17:13;21.65;;;12.55;;
25057;SDS011;13057;50.978;11.034;2023-02-16T04:19:39;21.63;;;13.15;;
25057;SDS011;13057;50.978;11.034;2023-02-16T04:22:05;21.08;;;12.18;;
25057;SDS011;13057;50.978;11.034;2023-02-16T04:24:31;20.08;;;12.77;;
25057;SDS011;13057;50.978;11.034;2023-02-16T04:26:56;19.58;;;12.55;;
25057;SDS011;13057;50.978;11.034;2023-02-16T04:29:22;21.75;;;12.40;;
25057;SDS011;13057;50.978;11.034;2023-02-16T04:31:48;19.90;;;12.70;;
25057;SDS011;13057;50.978;11.034;2023-02-16T04:34:14;19.67;;;13.00;;
25057;SDS011;13057;50.978;11.034;2023-02-16T04:36:40;20.58;;;12.48;;
25057;SDS011;13057;50.978;11.034;2023-02-16T04:39:06;21.77;;;12.82;;
25057;SDS011;13057;50.978;11.034;2023-02-16T04:41:31;19.42;;;12.70;;
25057;SDS011;13057;50.978;11.034;2023-02-16T04:43:57;18.67;;;11.77;;
25057;SDS011;13057;50.978;11.034;2023-02-16T04:46:32;18.88;;;12.15;;
25057;SDS011;13057;50.978;11.034;2023-02-16T04:48:58;21.58;;;12.05;;
25057;SDS011;13057;50.978;11.034;2023-02-16T04:51:24;20.38;;;11.90;;
25057;SDS011;13057;50.978;11.034;2023-02-16T04:53:50;18.73;;;12.73;;
25057;SDS011;13057;50.978;11.034;2023-02-16T04:56:21;21.00;;;12.32;;
25057;SDS011;13057;50.978;11.034;2023-02-16T04:58:47;20.00;;;13.35;;
25057;SDS011;13057;50.978;11.034;2023-02-16T05:01:18;21.65;;;12.50;;
25057;SDS011;13057;50.978;11.034;2023-02-16T05:03:44;23.08;;;13.18;;
25057;SDS011;13057;50.978;11.034;2023-02-16T05:06:10;23.90;;;13.93;;
25057;SDS011;13057;50.978;11.034;2023-02-16T05:08:36;24.25;;;13.15;;
25057;SDS011;13057;50.978;11.034;2023-02-16T05:11:05;21.30;;;13.57;;
25057;SDS011;13057;50.978;11.034;2023-02-16T05:13:42;22.02;;;13.55;;
25057;SDS011;13057;50.978;11.034;2023-02-16T05:16:21;23.98;;;14.40;;
25057;SDS011;13057;50.978;11.034;2023-02-16T05:18:57;21.10;;;12.82;;
25057;SDS011;13057;50.978;11.034;2023-02-16T05:21:26;21.02;;;13.23;;
25057;SDS011;13057;50.978;11.034;2023-02-16T05:23:56;22.42;;;13.13;;
25057;SDS011;13057;50.978;11.034;2023-02-16T05:26:23;18.95;;;12.40;;
25057;SDS011;13057;50.978;11.034;2023-02-16T05:28:52;20.30;;;12.70;;
25057;SDS011;13057;50.978;11.034;2023-02-16T05:31:25;19.63;;;11.82;;
25057;SDS011;13057;50.978;11.034;2023-02-16T05:33:51;19.77;;;12.43;;
25057;SDS011;13057;50.978;11.034;2023-02-16T05:36:17;20.15;;;12.50;;
25057;SDS011;13057;50.978;11.034;2023-02-16T05:38:44;21.75;;;12.32;;
25057;SDS011;13057;50.978;11.034;2023-02-16T05:41:10;21.80;;;12.23;;
25057;SDS011;13057;50.978;11.034;2023-02-16T05:43:48;21.02;;;13.00;;
25057;SDS011;13057;50.978;11.034;2023-02-16T05:46:15;20.33;;;12.63;;
25057;SDS011;13057;50.978;11.034;2023-02-16T05:48:41;19.05;;;12.15;;
25057;SDS011;13057;50.978;11.034;2023-02-16T05:51:06;20.23;;;12.45;;
25057;SDS011;13057;50.978;11.034;2023-02-16T05:53:32;20.42;;;12.77;;
25057;SDS011;13057;50.978;11.034;2023-02-16T05:55:58;22.95;;;12.73;;
25057;SDS011;13057;50.978;11.034;2023-02-16T05:58:24;19.58;;;12.88;;
25057;SDS011;13057;50.978;11.034;2023-02-16T06:00:50;25.75;;;12.55;;
25057;SDS011;13057;50.978;11.034;2023-02-16T06:03:18;19.58;;;12.18;;
25057;SDS011;13057;50.978;11.034;2023-02-16T06:05:44;21.05;;;12.25;;
25057;SDS011;13057;50.978;11.034;2023-02-16T06:08:10;18.90;;;11.80;;
25057;SDS011;13057;50.978;11.034;2023-02-16T06:10:36;21.05;;;12.32;;
25057;SDS011;13057;50.978;11.034;2023-02-16T06:13:02;20.27;;;12.68;;
25057;SDS011;13057;50.978;11.034;2023-02-16T06:15:28;20.75;;;12.77;;
25057;SDS011;13057;50.978;11.034;2023-02-16T06:17:53;24.30;;;11.82;;
25057;SDS011;13057;50.978;11.034;2023-02-16T06:20:20;19.63;;;12.55;;
25057;SDS011;13057;50.978;11.034;2023-02-16T06:22:46;21.55;;;13.18;;
25057;SDS011;13057;50.978;11.034;2023-02-16T06:25:18;20.92;;;13.10;;
25057;SDS011;13057;50.978;11.034;2023-02-16T06:27:44;22.67;;;14.07;;
25057;SDS011;13057;50.978;11.034;2023-02-16T06:30:10;21.05;;;13.80;;
25057;SDS011;13057;50.978;11.034;2023-02-16T06:32:37;30.55;;;14.35;;
25057;SDS011;13057;50.978;11.034;2023-02-16T06:35:12;23.25;;;13.65;;
25057;SDS011;13057;50.978;11.034;2023-02-16T06:37:37;24.42;;;13.10;;
25057;SDS011;13057;50.978;11.034;2023-02-16T06:40:04;23.67;;;14.68;;
25057;SDS011;13057;50.978;11.034;2023-02-16T06:42:30;22.05;;;13.25;;
25057;SDS011;13057;50.978;11.034;2023-02-16T06:44:56;23.40;;;14.65;;
25057;SDS011;13057;50.978;11.034;2023-02-16T06:47:22;23.63;;;14.25;;
25057;SDS011;13057;50.978;11.034;2023-02-16T06:49:54;28.33;;;16.08;;
25057;SDS011;13057;50.978;11.034;2023-02-16T06:52:23;33.22;;;17.42;;
25057;SDS011;13057;50.978;11.034;2023-02-16T06:54:49;31.30;;;16.80;;
25057;SDS011;13057;50.978;11.034;2023-02-16T06:57:14;32.38;;;15.63;;
25057;SDS011;13057;50.978;11.034;2023-02-16T06:59:46;25.65;;;15.70;;
25057;SDS011;13057;50.978;11.034;2023-02-16T07:02:13;26.25;;;15.60;;
25057;SDS011;13057;50.978;11.034;2023-02-16T07:04:39;32.45;;;18.50;;
25057;SDS011;13057;50.978;11.034;2023-02-16T07:07:06;25.52;;;15.40;;
25057;SDS011;13057;50.978;11.034;2023-02-16T07:09:34;24.35;;;14.43;;
25057;SDS011;13057;50.978;11.034;2023-02-16T07:12:01;26.05;;;15.30;;
25057;SDS011;13057;50.978;11.034;2023-02-16T07:14:27;25.08;;;14.48;;
25057;SDS011;13057;50.978;11.034;2023-02-16T07:16:53;25.80;;;15.43;;
25057;SDS011;13057;50.978;11.034;2023-02-16T07:19:18;26.52;;;15.63;;
25057;SDS011;13057;50.978;11.034;2023-02-16T07:21:44;25.55;;;15.40;;
25057;SDS011;13057;50.978;11.034;2023-02-16T07:24:10;24.10;;;15.50;;
25057;SDS011;13057;50.978;11.034;2023-02-16T07:26:36;26.77;;;16.05;;
25057;SDS011;13057;50.978;11.034;2023-02-16T07:29:02;25.98;;;15.77;;
25057;SDS011;13057;50.978;11.034;2023-02-16T07:31:29;28.23;;;16.27;;
25057;SDS011;13057;50.978;11.034;2023-02-16T07:33:54;23.48;;;14.88;;
25057;SDS011;13057;50.978;11.034;2023-02-16T07:36:26;26.80;;;14.95;;
25057;SDS011;13057;50.978;11.034;2023-02-16T07:38:52;25.13;;;15.43;;
25057;SDS011;13057;50.978;11.034;2023-02-16T07:41:19;27.75;;;16.35;;
25057;SDS011;13057;50.978;11.034;2023-02-16T07:44:02;28.42;;;16.63;;
25057;SDS011;13057;50.978;11.034;2023-02-16T07:46:56;30.20;;;18.35;;
25057;SDS011;13057;50.978;11.034;2023-02-16T07:49:25;30.95;;;17.23;;
25057;SDS011;13057;50.978;11.034;2023-02-16T07:51:51;31.60;;;18.13;;
25057;SDS011;13057;50.978;11.034;2023-02-16T07:54:20;28.33;;;17.38;;
25057;SDS011;13057;50.978;11.034;2023-02-16T07:56:45;30.48;;;17.20;;
25057;SDS011;13057;50.978;11.034;2023-02-16T07:59:17;29.90;;;17.88;;
25057;SDS011;13057;50.978;11.034;2023-02-16T08:01:43;28.83;;;16.40;;
25057;SDS011;13057;50.978;11.034;2023-02-16T08:04:09;31.50;;;16.75;;
25057;SDS011;13057;50.978;11.034;2023-02-16T08:06:35;39.42;;;16.98;;
25057;SDS011;13057;50.978;11.034;2023-02-16T08:09:01;27.52;;;16.92;;
25057;SDS011;13057;50.978;11.034;2023-02-16T08:11:30;31.75;;;17.10;;
25057;SDS011;13057;50.978;11.034;2023-02-16T08:14:08;31.60;;;17.35;;
25057;SDS011;13057;50.978;11.034;2023-02-16T08:16:34;31.38;;;17.75;;
25057;SDS011;13057;50.978;11.034;2023-02-16T08:19:03;31.67;;;17.30;;
25057;SDS011;13057;50.978;11.034;2023-02-16T08:21:41;30.77;;;16.92;;
25057;SDS011;13057;50.978;11.034;2023-02-16T08:24:16;30.38;;;17.92;;
25057;SDS011;13057;50.978;11.034;2023-02-16T08:26:41;30.45;;;17.83;;
25057;SDS011;13057;50.978;11.034;2023-02-16T08:29:09;31.92;;;17.88;;
25057;SDS011;13057;50.978;11.034;2023-02-16T08:31:37;31.50;;;18.13;;
25057;SDS011;13057;50.978;11.034;2023-02-16T08:34:03;28.48;;;17.90;;
25057;SDS011;13057;50.978;11.034;2023-02-16T08:36:32;30.25;;;18.05;;
25057;SDS011;13057;50.978;11.034;2023-02-16T08:39:00;32.72;;;18.98;;
25057;SDS011;13057;50.978;11.034;2023-02-16T08:41:30;30.45;;;17.10;;
25057;SDS011;13057;50.978;11.034;2023-02-16T08:43:57;30.05;;;17.65;;
25057;SDS011;13057;50.978;11.034;2023-02-16T08:46:25;30.13;;;16.77;;
25057;SDS011;13057;50.978;11.034;2023-02-16T08:48:53;31.95;;;15.40;;
25057;SDS011;13057;50.978;11.034;2023-02-16T08:51:23;29.45;;;17.58;;
25057;SDS011;13057;50.978;11.034;2023-02-16T08:53:51;28.02;;;17.17;;
25057;SDS011;13057;50.978;11.034;2023-02-16T08:56:18;29.88;;;17.70;;
25057;SDS011;13057;50.978;11.034;2023-02-16T08:58:47;25.25;;;15.27;;
25057;SDS011;13057;50.978;11.034;2023-02-16T09:01:13;26.33;;;16.67;;
25057;SDS011;13057;50.978;11.034;2023-02-16T09:03:43;30.00;;;16.95;;
25057;SDS011;13057;50.978;11.034;2023-02-16T09:06:11;28.10;;;16.92;;
25057;SDS011;13057;50.978;11.034;2023-02-16T09:08:44;26.67;;;13.32;;
25057;SDS011;13057;50.978;11.034;2023-02-16T09:11:14;28.45;;;16.88;;
25057;SDS011;13057;50.978;11.034;2023-02-16T09:13:41;27.70;;;16.42;;
25057;SDS011;13057;50.978;11.034;2023-02-16T09:16:08;28.10;;;16.60;;
25057;SDS011;13057;50.978;11.034;2023-02-16T09:18:37;27.73;;;16.10;;
25057;SDS011;13057;50.978;11.034;2023-02-16T09:21:05;42.40;;;20.45;;
25057;SDS011;13057;50.978;11.034;2023-02-16T09:23:35;48.05;;;29.38;;
25057;SDS011;13057;50.978;11.034;2023-02-16T09:26:02;30.20;;;17.58;;
25057;SDS011;13057;50.978;11.034;2023-02-16T09:28:31;30.33;;;18.48;;
25057;SDS011;13057;50.978;11.034;2023-02-16T09:30:58;27.23;;;16.23;;
25057;SDS011;13057;50.978;11.034;2023-02-16T09:33:24;26.95;;;15.73;;
25057;SDS011;13057;50.978;11.034;2023-02-16T09:35:50;26.55;;;16.25;;
25057;SDS011;13057;50.978;11.034;2023-02-16T09:38:17;26.65;;;15.77;;
25057;SDS011;13057;50.978;11.034;2023-02-16T09:40:43;30.15;;;17.20;;
25057;SDS011;13057;50.978;11.034;2023-02-16T09:45:58;30.48;;;16.45;;
25057;SDS011;13057;50.978;11.034;2023-02-16T09:48:29;25.67;;;15.10;;
25057;SDS011;13057;50.978;11.034;2023-02-16T09:51:02;29.30;;;18.02;;
25057;SDS011;13057;50.978;11.034;2023-02-16T09:53:34;28.45;;;16.90;;
25057;SDS011;13057;50.978;11.034;2023-02-16T09:56:14;29.40;;;16.58;;
25057;SDS011;13057;50.978;11.034;2023-02-16T10:01:26;25.45;;;14.00;;
25057;SDS011;13057;50.978;11.034;2023-02-16T10:04:05;34.03;;;16.38;;
25057;SDS011;13057;50.978;11.034;2023-02-16T10:07:00;24.40;;;14.32;;
25057;SDS011;13057;50.978;11.034;2023-02-16T10:09:40;25.48;;;14.90;;
25057;SDS011;13057;50.978;11.034;2023-02-16T10:12:13;25.33;;;14.93;;
25057;SDS011;13057;50.978;11.034;2023-02-16T10:14:51;28.08;;;15.48;;
25057;SDS011;13057;50.978;11.034;2023-02-16T10:17:33;25.27;;;15.57;;
25057;SDS011;13057;50.978;11.034;2023-02-16T10:23:03;23.95;;;14.25;;
25057;SDS011;13057;50.978;11.034;2023-02-16T10:25:46;25.63;;;14.45;;
25057;SDS011;13057;50.978;11.034;2023-02-16T10:28:19;31.05;;;15.45;;
25057;SDS011;13057;50.978;11.034;2023-02-16T10:30:57;23.02;;;14.38;;
25057;SDS011;13057;50.978;11.034;2023-02-16T10:33:37;27.85;;;15.60;;
25057;SDS011;13057;50.978;11.034;2023-02-16T10:36:13;33.50;;;18.10;;
25057;SDS011;13057;50.978;11.034;2023-02-16T10:38:58;29.25;;;16.40;;
25057;SDS011;13057;50.978;11.034;2023-02-16T10:41:35;26.80;;;15.45;;
25057;SDS011;13057;50.978;11.034;2023-02-16T10:44:09;25.85;;;15.10;;
25057;SDS011;13057;50.978;11.034;2023-02-16T10:46:41;27.40;;;15.73;;
25057;SDS011;13057;50.978;11.034;2023-02-16T10:49:12;29.70;;;15.32;;
25057;SDS011;13057;50.978;11.034;2023-02-16T10:51:40;26.17;;;15.73;;
25057;SDS011;13057;50.978;11.034;2023-02-16T10:54:13;28.83;;;15.32;;
25057;SDS011;13057;50.978;11.034;2023-02-16T10:59:18;30.70;;;16.70;;
25057;SDS011;13057;50.978;11.034;2023-02-16T11:01:49;25.48;;;15.02;;
25057;SDS011;13057;50.978;11.034;2023-02-16T11:07:03;27.48;;;14.77;;
25057;SDS011;13057;50.978;11.034;2023-02-16T11:09:32;27.70;;;14.68;;
25057;SDS011;13057;50.978;11.034;2023-02-16T11:11:58;26.15;;;14.82;;
25057;SDS011;13057;50.978;11.034;2023-02-16T11:14:26;25.15;;;14.10;;
25057;SDS011;13057;50.978;11.034;2023-02-16T11:19:38;26.27;;;14.65;;
25057;SDS011;13057;50.978;11.034;2023-02-16T11:24:52;24.92;;;14.18;;
25057;SDS011;13057;50.978;11.034;2023-02-16T11:27:20;23.17;;;14.98;;
25057;SDS011;13057;50.978;11.034;2023-02-16T11:29:47;26.38;;;12.75;;
25057;SDS011;13057;50.978;11.034;2023-02-16T11:32:15;22.75;;;13.38;;
25057;SDS011;13057;50.978;11.034;2023-02-16T11:34:46;26.45;;;14.77;;
25057;SDS011;13057;50.978;11.034;2023-02-16T11:37:23;22.40;;;14.20;;
25057;SDS011;13057;50.978;11.034;2023-02-16T11:39:55;22.80;;;13.95;;
25057;SDS011;13057;50.978;11.034;2023-02-16T11:42:28;28.30;;;15.32;;
25057;SDS011;13057;50.978;11.034;2023-02-16T11:45:05;22.35;;;13.90;;
25057;SDS011;13057;50.978;11.034;2023-02-16T11:47:34;27.08;;;14.10;;
25057;SDS011;13057;50.978;11.034;2023-02-16T11:50:12;24.42;;;13.32;;
25057;SDS011;13057;50.978;11.034;2023-02-16T11:52:47;19.45;;;12.05;;
25057;SDS011;13057;50.978;11.034;2023-02-16T11:55:18;35.42;;;20.63;;
25057;SDS011;13057;50.978;11.034;2023-02-16T11:57:46;17.57;;;11.20;;
25057;SDS011;13057;50.978;11.034;2023-02-16T12:00:16;20.17;;;11.88;;
25057;SDS011;13057;50.978;11.034;2023-02-16T12:02:58;21.17;;;12.25;;
25057;SDS011;13057;50.978;11.034;2023-02-16T12:05:55;20.80;;;12.45;;
25057;SDS011;13057;50.978;11.034;2023-02-16T12:08:32;18.27;;;11.90;;
25057;SDS011;13057;50.978;11.034;2023-02-16T12:14:05;20.10;;;12.13;;
25057;SDS011;13057;50.978;11.034;2023-02-16T12:17:06;26.77;;;13.57;;
25057;SDS011;13057;50.978;11.034;2023-02-16T12:19:44;20.48;;;12.02;;
25057;SDS011;13057;50.978;11.034;2023-02-16T12:22:23;20.15;;;12.07;;
25057;SDS011;13057;50.978;11.034;2023-02-16T12:25:15;24.70;;;12.68;;
25057;SDS011;13057;50.978;11.034;2023-02-16T12:27:54;22.45;;;11.90;;
25057;SDS011;13057;50.978;11.034;2023-02-16T12:30:31;21.67;;;11.77;;
25057;SDS011;13057;50.978;11.034;2023-02-16T12:33:14;20.27;;;11.07;;
25057;SDS011;13057;50.978;11.034;2023-02-16T12:36:00;24.17;;;11.02;;
25057;SDS011;13057;50.978;11.034;2023-02-16T12:38:46;22.92;;;12.50;;
25057;SDS011;13057;50.978;11.034;2023-02-16T12:41:29;18.73;;;9.63;;
25057;SDS011;13057;50.978;11.034;2023-02-16T12:44:12;16.08;;;9.75;;
25057;SDS011;13057;50.978;11.034;2023-02-16T12:46:44;16.05;;;9.35;;
25057;SDS011;13057;50.978;11.034;2023-02-16T12:49:16;18.10;;;8.82;;
25057;SDS011;13057;50.978;11.034;2023-02-16T12:51:49;14.00;;;8.82;;
25057;SDS011;13057;50.978;11.034;2023-02-16T12:54:31;14.85;;;8.52;;
25057;SDS011;13057;50.978;11.034;2023-02-16T12:57:03;15.10;;;8.75;;
25057;SDS011;13057;50.978;11.034;2023-02-16T13:02:04;13.00;;;8.00;;
25057;SDS011;13057;50.978;11.034;2023-02-16T13:04:44;14.82;;;8.50;;
25057;SDS011;13057;50.978;11.034;2023-02-16T13:07:18;15.35;;;8.43;;
25057;SDS011;13057;50.978;11.034;2023-02-16T13:09:53;15.38;;;9.00;;
25057;SDS011;13057;50.978;11.034;2023-02-16T13:12:29;17.27;;;9.07;;
25057;SDS011;13057;50.978;11.034;2023-02-16T13:15:10;13.45;;;8.75;;
25057;SDS011;13057;50.978;11.034;2023-02-16T13:17:43;14.93;;;8.70;;
25057;SDS011;13057;50.978;11.034;2023-02-16T13:20:18;12.93;;;7.78;;
25057;SDS011;13057;50.978;11.034;2023-02-16T13:22:54;15.25;;;8.27;;
25057;SDS011;13057;50.978;11.034;2023-02-16T13:25:46;12.57;;;7.80;;
25057;SDS011;13057;50.978;11.034;2023-02-16T13:28:47;12.00;;;7.47;;
25057;SDS011;13057;50.978;11.034;2023-02-16T13:31:34;13.57;;;7.68;;
25057;SDS011;13057;50.978;11.034;2023-02-16T13:34:18;14.37;;;7.70;;
25057;SDS011;13057;50.978;11.034;2023-02-16T13:37:05;15.18;;;7.93;;
25057;SDS011;13057;50.978;11.034;2023-02-16T13:39:53;13.90;;;7.22;;
25057;SDS011;13057;50.978;11.034;2023-02-16T13:42:44;11.98;;;7.82;;
25057;SDS011;13057;50.978;11.034;2023-02-16T13:45:27;23.10;;;9.40;;
25057;SDS011;13057;50.978;11.034;2023-02-16T13:47:56;16.35;;;8.50;;
25057;SDS011;13057;50.978;11.034;2023-02-16T13:50:26;15.45;;;8.38;;
25057;SDS011;13057;50.978;11.034;2023-02-16T13:52:55;12.98;;;7.97;;
25057;SDS011;13057;50.978;11.034;2023-02-16T13:55:33;13.88;;;8.55;;
25057;SDS011;13057;50.978;11.034;2023-02-16T13:58:09;13.25;;;8.05;;
25057;SDS011;13057;50.978;11.034;2023-02-16T14:00:52;13.63;;;8.15;;
25057;SDS011;13057;50.978;11.034;2023-02-16T14:09:29;20.15;;;9.70;;
25057;SDS011;13057;50.978;11.034;2023-02-16T14:11:59;16.30;;;9.25;;
25057;SDS011;13057;50.978;11.034;2023-02-16T14:14:28;16.08;;;9.40;;
25057;SDS011;13057;50.978;11.034;2023-02-16T14:19:59;15.07;;;8.73;;
25057;SDS011;13057;50.978;11.034;2023-02-16T14:22:30;13.32;;;8.93;;
25057;SDS011;13057;50.978;11.034;2023-02-16T14:27:59;17.48;;;9.30;;
25057;SDS011;13057;50.978;11.034;2023-02-16T14:30:33;17.42;;;9.35;;
25057;SDS011;13057;50.978;11.034;2023-02-16T14:33:31;13.88;;;8.88;;
25057;SDS011;13057;50.978;11.034;2023-02-16T14:36:04;16.63;;;9.90;;
25057;SDS011;13057;50.978;11.034;2023-02-16T14:38:47;15.52;;;9.57;;
25057;SDS011;13057;50.978;11.034;2023-02-16T14:41:24;18.15;;;10.48;;
25057;SDS011;13057;50.978;11.034;2023-02-16T14:47:05;15.90;;;9.30;;
25057;SDS011;13057;50.978;11.034;2023-02-16T14:52:37;21.60;;;11.05;;
25057;SDS011;13057;50.978;11.034;2023-02-16T14:55:30;23.20;;;11.45;;
25057;SDS011;13057;50.978;11.034;2023-02-16T14:58:18;20.73;;;12.07;;
25057;SDS011;13057;50.978;11.034;2023-02-16T15:01:01;17.55;;;10.35;;
25057;SDS011;13057;50.978;11.034;2023-02-16T15:03:40;20.63;;;10.68;;
25057;SDS011;13057;50.978;11.034;2023-02-16T15:06:13;18.58;;;10.43;;
25057;SDS011;13057;50.978;11.034;2023-02-16T15:09:02;19.20;;;10.40;;
25057;SDS011;13057;50.978;11.034;2023-02-16T15:11:55;17.90;;;10.13;;
25057;SDS011;13057;50.978;11.034;2023-02-16T15:14:37;18.95;;;10.90;;
25057;SDS011;13057;50.978;11.034;2023-02-16T15:17:13;16.55;;;9.57;;
25057;SDS011;13057;50.978;11.034;2023-02-16T15:19:51;16.35;;;10.48;;
25057;SDS011;13057;50.978;11.034;2023-02-16T15:22:20;20.75;;;11.38;;
25057;SDS011;13057;50.978;11.034;2023-02-16T15:24:59;19.38;;;10.75;;
25057;SDS011;13057;50.978;11.034;2023-02-16T15:27:27;23.00;;;13.65;;
25057;SDS011;13057;50.978;11.034;2023-02-16T15:30:02;15.15;;;10.00;;